Time;durP1;ratioP1;P1;durP2;ratioP2;P2;SDS_P1;SDS_P2;PMS_P1;PMS_P2;Temp;Humidity;BMP_temperature;BMP_pressure;BME280_temperature;BME280_humidity;BME280_pressure;Samples;Min_cycle;Max_cycle;Signal;HPM_P1;HPM_P2
2023/08/07 00:00:12;;;;;;;4.90;1.70;;;;;;;;;;106220;1285;24206;-84
2023/08/07 00:02:58;;;;;;;3.90;1.50;;;;;;;;;;104035;1282;22532;-82
2023/08/07 00:05:25;;;;;;;3.90;1.50;;;;;;;;;;106415;1282;25395;-86
2023/08/07 00:07:52;;;;;;;4.60;1.70;;;;;;;;;;106432;1268;23877;-86
2023/08/07 00:10:19;;;;;;;4.60;1.70;;;;;;;;;;106394;1282;22530;-85
2023/08/07 00:12:46;;;;;;;4.30;1.70;;;;;;;;;;106502;1282;24244;-89
2023/08/07 00:15:13;;;;;;;4.90;1.80;;;;;;;;;;106459;1283;24253;-85
2023/08/07 00:17:42;;;;;;;3.90;1.70;;;;;;;;;;106488;1276;26495;-84
2023/08/07 00:20:11;;;;;;;4.90;2.00;;;;;;;;;;107346;1271;25337;-86
2023/08/07 00:22:37;;;;;;;4.30;1.80;;;;;;;;;;107084;1271;22509;-82
2023/08/07 00:25:04;;;;;;;3.70;1.60;;;;;;;;;;107486;1271;25262;-87
2023/08/07 00:27:31;;;;;;;4.10;1.70;;;;;;;;;;107328;1248;22522;-86
2023/08/07 00:29:58;;;;;;;4.10;1.90;;;;;;;;;;107230;1273;22521;-86
2023/08/07 00:32:28;;;;;;;4.40;1.90;;;;;;;;;;107212;1272;24297;-88
2023/08/07 00:34:54;;;;;;;5.00;2.10;;;;;;;;;;107063;1270;22534;-84
2023/08/07 00:37:21;;;;;;;4.90;1.80;;;;;;;;;;107057;1273;25492;-87
2023/08/07 00:39:48;;;;;;;5.60;2.10;;;;;;;;;;107206;1255;22992;-82
2023/08/07 00:42:15;;;;;;;4.10;1.70;;;;;;;;;;107241;1274;22524;-86
2023/08/07 00:44:41;;;;;;;4.70;2.00;;;;;;;;;;107149;1274;25390;-83
2023/08/07 00:47:08;;;;;;;4.50;2.00;;;;;;;;;;107227;1274;22540;-84
2023/08/07 00:49:35;;;;;;;3.60;1.70;;;;;;;;;;107003;1275;23127;-88
2023/08/07 00:52:02;;;;;;;3.70;2.00;;;;;;;;;;107163;1275;25422;-86
2023/08/07 00:54:29;;;;;;;4.20;1.90;;;;;;;;;;107209;1274;25347;-82
2023/08/07 00:57:07;;;;;;;5.60;2.00;;;;;;;;;;106954;1274;22476;-83
2023/08/07 00:59:37;;;;;;;5.00;2.00;;;;;;;;;;107243;1255;24247;-88
2023/08/07 01:02:04;;;;;;;4.30;2.10;;;;;;;;;;107092;1274;26471;-88
2023/08/07 01:04:31;;;;;;;5.70;2.10;;;;;;;;;;107150;1274;22514;-84
2023/08/07 01:06:58;;;;;;;7.70;2.10;;;;;;;;;;107211;1274;24215;-83
2023/08/07 01:09:27;;;;;;;5.80;2.40;;;;;;;;;;107279;1256;22617;-82
2023/08/07 01:12:03;;;;;;;5.80;2.40;;;;;;;;;;107060;1274;22533;-88
2023/08/07 01:15:01;;;;;;;5.40;2.60;;;;;;;;;;107255;1274;25350;-85
2023/08/07 01:17:33;;;;;;;5.90;2.60;;;;;;;;;;107201;1274;24344;-83
2023/08/07 01:20:01;;;;;;;4.70;2.50;;;;;;;;;;107189;1256;22520;-82
2023/08/07 01:22:28;;;;;;;5.00;2.30;;;;;;;;;;106981;1275;22499;-82
2023/08/07 01:24:55;;;;;;;6.20;2.20;;;;;;;;;;107043;1275;24247;-88
2023/08/07 01:27:28;;;;;;;5.70;2.30;;;;;;;;;;107027;1275;24189;-87
2023/08/07 01:30:01;;;;;;;6.50;2.30;;;;;;;;;;107012;1259;24210;-88
2023/08/07 01:32:48;;;;;;;6.60;3.00;;;;;;;;;;107093;1274;25310;-83
2023/08/07 01:35:16;;;;;;;8.20;3.10;;;;;;;;;;106672;1280;24128;-83
2023/08/07 01:37:45;;;;;;;6.10;3.00;;;;;;;;;;106519;1280;24352;-88
2023/08/07 01:40:12;;;;;;;8.00;2.70;;;;;;;;;;106684;1275;24279;-86
2023/08/07 01:42:45;;;;;;;5.50;2.50;;;;;;;;;;106616;1280;24282;-83
2023/08/07 01:45:11;;;;;;;5.40;2.40;;;;;;;;;;106734;1280;25514;-86
2023/08/07 01:47:38;;;;;;;6.40;2.50;;;;;;;;;;106642;1280;22528;-82
2023/08/07 01:50:06;;;;;;;5.60;2.20;;;;;;;;;;106813;1262;22536;-88
2023/08/07 01:52:33;;;;;;;5.30;2.30;;;;;;;;;;106651;1280;22944;-86
2023/08/07 01:54:59;;;;;;;4.90;2.10;;;;;;;;;;106825;1278;22523;-81
2023/08/07 01:57:31;;;;;;;5.40;2.50;;;;;;;;;;106543;1280;22531;-83
2023/08/07 01:59:58;;;;;;;5.10;2.60;;;;;;;;;;106567;1280;22520;-82
2023/08/07 02:02:25;;;;;;;5.10;2.30;;;;;;;;;;106653;1280;22881;-84
2023/08/07 02:04:52;;;;;;;8.20;2.30;;;;;;;;;;106585;1280;24302;-85
2023/08/07 02:07:18;;;;;;;5.50;2.20;;;;;;;;;;106572;1279;22572;-82
2023/08/07 02:09:45;;;;;;;4.30;2.10;;;;;;;;;;106558;1257;22519;-87
2023/08/07 02:12:12;;;;;;;5.70;2.10;;;;;;;;;;106679;1274;22476;-89
2023/08/07 02:14:39;;;;;;;4.50;2.00;;;;;;;;;;107196;1274;22631;-82
2023/08/07 02:17:06;;;;;;;4.60;2.20;;;;;;;;;;106954;1274;22527;-87
2023/08/07 02:19:32;;;;;;;5.20;2.30;;;;;;;;;;107075;1274;22626;-82
2023/08/07 02:21:59;;;;;;;4.70;2.30;;;;;;;;;;106965;1264;25325;-82
2023/08/07 02:24:32;;;;;;;4.60;2.10;;;;;;;;;;107216;1274;24273;-83
2023/08/07 02:27:02;;;;;;;6.20;2.00;;;;;;;;;;107207;1274;22751;-84
2023/08/07 02:29:29;;;;;;;6.30;1.90;;;;;;;;;;107127;1274;22527;-83
2023/08/07 02:31:57;;;;;;;4.50;1.90;;;;;;;;;;107088;1268;22517;-88
2023/08/07 02:34:24;;;;;;;4.30;1.70;;;;;;;;;;107084;1275;22525;-82
2023/08/07 02:36:51;;;;;;;4.10;1.90;;;;;;;;;;107240;1275;24210;-83
2023/08/07 02:39:18;;;;;;;4.00;1.70;;;;;;;;;;107198;1274;22519;-81
2023/08/07 02:41:47;;;;;;;4.30;2.00;;;;;;;;;;107139;1255;25224;-88
2023/08/07 02:44:20;;;;;;;4.40;1.80;;;;;;;;;;106960;1274;22508;-84
2023/08/07 02:46:46;;;;;;;3.80;1.90;;;;;;;;;;107056;1274;25334;-81
2023/08/07 02:49:13;;;;;;;3.20;1.80;;;;;;;;;;107024;1274;22528;-83
2023/08/07 02:51:43;;;;;;;4.30;1.80;;;;;;;;;;107057;1275;23407;-86
2023/08/07 02:54:10;;;;;;;3.70;1.70;;;;;;;;;;106958;1275;25610;-82
2023/08/07 02:56:37;;;;;;;5.10;1.60;;;;;;;;;;106966;1275;25049;-88
2023/08/07 02:59:04;;;;;;;4.50;1.90;;;;;;;;;;106986;1275;22531;-84
2023/08/07 03:01:48;;;;;;;2.60;1.50;;;;;;;;;;107040;1257;25432;-86
2023/08/07 03:04:15;;;;;;;3.50;1.80;;;;;;;;;;107065;1274;25274;-82
2023/08/07 03:06:42;;;;;;;3.80;2.00;;;;;;;;;;107070;1274;22520;-85
2023/08/07 03:09:11;;;;;;;3.80;2.00;;;;;;;;;;107065;1274;22517;-84
2023/08/07 03:11:41;;;;;;;3.90;1.90;;;;;;;;;;106996;1259;22642;-87
2023/08/07 03:14:08;;;;;;;3.40;1.70;;;;;;;;;;107226;1275;22593;-83
2023/08/07 03:16:34;;;;;;;3.90;1.60;;;;;;;;;;107184;1275;22536;-83
2023/08/07 03:19:01;;;;;;;4.70;1.90;;;;;;;;;;107209;1275;25333;-82
2023/08/07 03:21:39;;;;;;;3.20;1.70;;;;;;;;;;107137;1267;25214;-85
2023/08/07 03:24:08;;;;;;;3.90;2.20;;;;;;;;;;107071;1274;24273;-87
2023/08/07 03:26:35;;;;;;;5.10;2.40;;;;;;;;;;107011;1265;24237;-87
2023/08/07 03:29:02;;;;;;;5.00;2.40;;;;;;;;;;107005;1274;25092;-82
2023/08/07 03:31:29;;;;;;;5.40;2.20;;;;;;;;;;106992;1260;24247;-84
2023/08/07 03:33:56;;;;;;;5.30;2.10;;;;;;;;;;107080;1275;24196;-88
2023/08/07 03:36:23;;;;;;;5.00;1.90;;;;;;;;;;107131;1266;23864;-84
2023/08/07 03:38:52;;;;;;;4.00;1.90;;;;;;;;;;107077;1272;22520;-83
2023/08/07 03:41:32;;;;;;;;;;;;;;;;;;;;;
2023/08/07 03:44:04;;;;;;;4.40;1.80;;;;;;;;;;107244;1274;22525;-84
2023/08/07 03:46:31;;;;;;;5.40;2.10;;;;;;;;;;107111;1275;25316;-84
2023/08/07 03:48:58;;;;;;;4.00;2.00;;;;;;;;;;107085;1275;25485;-90
2023/08/07 03:51:29;;;;;;;5.90;2.20;;;;;;;;;;107091;1254;22495;-87
2023/08/07 03:54:01;;;;;;;4.50;2.20;;;;;;;;;;107154;1275;22536;-83
2023/08/07 03:56:36;;;;;;;5.40;2.20;;;;;;;;;;107201;1275;25361;-88
2023/08/07 03:59:03;;;;;;;4.90;1.60;;;;;;;;;;107129;1275;24236;-85
2023/08/07 04:01:30;;;;;;;4.30;2.00;;;;;;;;;;107177;1275;22587;-83
2023/08/07 04:04:00;;;;;;;3.70;1.60;;;;;;;;;;106925;1273;22539;-89
2023/08/07 04:06:28;;;;;;;3.90;1.80;;;;;;;;;;107064;1275;22536;-90
2023/08/07 04:09:05;;;;;;;;;;;;;;;;;;;;;
2023/08/07 04:12:01;;;;;;;4.40;1.60;;;;;;;;;;107102;1257;22525;-88
2023/08/07 04:14:28;;;;;;;4.10;1.80;;;;;;;;;;106968;1275;23121;-91
2023/08/07 04:16:59;;;;;;;4.60;1.90;;;;;;;;;;107195;1275;24898;-85
2023/08/07 04:19:26;;;;;;;3.90;1.90;;;;;;;;;;107243;1275;22535;-91
2023/08/07 04:21:53;;;;;;;4.10;1.90;;;;;;;;;;107216;1275;24281;-83
2023/08/07 04:24:20;;;;;;;4.30;2.00;;;;;;;;;;106895;1260;22540;-85
2023/08/07 04:26:47;;;;;;;3.80;1.60;;;;;;;;;;107089;1275;24078;-90
2023/08/07 04:29:19;;;;;;;4.20;1.70;;;;;;;;;;107083;1275;22520;-88
2023/08/07 04:31:48;;;;;;;3.70;1.70;;;;;;;;;;106978;1276;26545;-89
2023/08/07 04:34:15;;;;;;;2.90;1.40;;;;;;;;;;106948;1259;25198;-85
2023/08/07 04:36:42;;;;;;;3.30;1.60;;;;;;;;;;107046;1275;24190;-86
2023/08/07 04:39:08;;;;;;;3.60;1.60;;;;;;;;;;107001;1275;22515;-91
2023/08/07 04:41:35;;;;;;;5.70;1.70;;;;;;;;;;107223;1275;22779;-90
2023/08/07 04:44:12;;;;;;;3.20;1.30;;;;;;;;;;107083;1266;26628;-87
2023/08/07 04:46:39;;;;;;;4.00;1.60;;;;;;;;;;106985;1276;22521;-85
2023/08/07 04:49:08;;;;;;;3.80;1.40;;;;;;;;;;106948;1276;25224;-84
2023/08/07 04:51:38;;;;;;;4.60;1.50;;;;;;;;;;106961;1275;25343;-88
2023/08/07 04:54:06;;;;;;;3.40;1.40;;;;;;;;;;107106;1273;25521;-86
2023/08/07 04:56:32;;;;;;;3.00;1.40;;;;;;;;;;107135;1275;22524;-84
2023/08/07 04:59:00;;;;;;;3.30;1.20;;;;;;;;;;107007;1275;23109;-84
2023/08/07 05:01:27;;;;;;;2.80;1.30;;;;;;;;;;107252;1271;22529;-88
2023/08/07 05:03:53;;;;;;;3.20;1.30;;;;;;;;;;107238;1256;25216;-84
2023/08/07 05:06:20;;;;;;;3.30;1.40;;;;;;;;;;107517;1273;22489;-84
2023/08/07 05:08:47;;;;;;;5.00;1.50;;;;;;;;;;107319;1263;22641;-87
2023/08/07 05:11:15;;;;;;;4.50;1.70;;;;;;;;;;107544;1273;22517;-84
2023/08/07 05:13:44;;;;;;;4.00;1.50;;;;;;;;;;107014;1274;24209;-87
2023/08/07 05:16:14;;;;;;;4.10;1.50;;;;;;;;;;107256;1274;22661;-88
2023/08/07 05:18:46;;;;;;;4.20;1.50;;;;;;;;;;107204;1274;24222;-87
2023/08/07 05:21:13;;;;;;;4.20;1.60;;;;;;;;;;107230;1274;25290;-87
2023/08/07 05:23:40;;;;;;;3.40;1.50;;;;;;;;;;107238;1256;25344;-88
2023/08/07 05:26:06;;;;;;;3.80;1.50;;;;;;;;;;107170;1273;24352;-89
2023/08/07 05:28:33;;;;;;;3.00;1.30;;;;;;;;;;107159;1273;25885;-87
2023/08/07 05:31:03;;;;;;;2.90;1.30;;;;;;;;;;107268;1273;25289;-85
2023/08/07 05:33:39;;;;;;;3.70;1.50;;;;;;;;;;107119;1251;22521;-88
2023/08/07 05:36:11;;;;;;;3.00;1.40;;;;;;;;;;107175;1273;25265;-83
2023/08/07 05:38:37;;;;;;;3.60;1.70;;;;;;;;;;107240;1273;24248;-89
2023/08/07 05:41:04;;;;;;;4.90;1.90;;;;;;;;;;107263;1273;23270;-89
2023/08/07 05:43:31;;;;;;;6.10;2.10;;;;;;;;;;107210;1273;22637;-83
2023/08/07 05:45:58;;;;;;;3.60;1.70;;;;;;;;;;106969;1259;24019;-87
2023/08/07 05:48:25;;;;;;;4.20;1.80;;;;;;;;;;106958;1275;25233;-87
2023/08/07 05:50:54;;;;;;;4.70;1.90;;;;;;;;;;107177;1275;22666;-85
2023/08/07 05:53:21;;;;;;;3.80;1.80;;;;;;;;;;107241;1272;22524;-83
2023/08/07 05:55:48;;;;;;;4.10;1.90;;;;;;;;;;106941;1266;22484;-89
2023/08/07 05:58:17;;;;;;;5.30;1.80;;;;;;;;;;107198;1274;22522;-88
2023/08/07 06:00:44;;;;;;;5.00;1.90;;;;;;;;;;107204;1274;22521;-89
2023/08/07 06:03:11;;;;;;;4.30;1.70;;;;;;;;;;107168;1275;22534;-85
2023/08/07 06:05:38;;;;;;;5.30;1.90;;;;;;;;;;107218;1274;22525;-90
2023/08/07 06:08:05;;;;;;;5.50;2.20;;;;;;;;;;106936;1275;22522;-87
2023/08/07 06:10:32;;;;;;;3.70;2.00;;;;;;;;;;107174;1275;22540;-87
2023/08/07 06:12:58;;;;;;;5.90;1.90;;;;;;;;;;107237;1275;22527;-89
2023/08/07 06:15:27;;;;;;;4.70;1.80;;;;;;;;;;107182;1256;22517;-89
2023/08/07 06:17:55;;;;;;;7.10;2.00;;;;;;;;;;107268;1274;24307;-85
2023/08/07 06:20:21;;;;;;;5.50;1.80;;;;;;;;;;107185;1275;22479;-85
2023/08/07 06:22:48;;;;;;;5.20;1.90;;;;;;;;;;107191;1275;25343;-87
2023/08/07 06:25:15;;;;;;;7.30;2.20;;;;;;;;;;107031;1261;22522;-87
2023/08/07 06:27:45;;;;;;;6.50;2.40;;;;;;;;;;107109;1276;22526;-84
2023/08/07 06:30:13;;;;;;;4.70;2.10;;;;;;;;;;107087;1276;25278;-85
2023/08/07 06:32:43;;;;;;;5.10;2.20;;;;;;;;;;107127;1276;24207;-87
2023/08/07 06:35:10;;;;;;;4.90;2.00;;;;;;;;;;107003;1267;24311;-87
2023/08/07 06:37:42;;;;;;;5.60;1.90;;;;;;;;;;106958;1275;22529;-87
2023/08/07 06:40:09;;;;;;;6.80;2.50;;;;;;;;;;106884;1275;26487;-89
2023/08/07 06:42:39;;;;;;;6.70;2.10;;;;;;;;;;107181;1275;25410;-88
2023/08/07 06:45:09;;;;;;;4.90;2.20;;;;;;;;;;107548;1254;22520;-86
2023/08/07 06:47:36;;;;;;;5.40;2.20;;;;;;;;;;107237;1269;25251;-86
2023/08/07 06:50:04;;;;;;;5.60;2.60;;;;;;;;;;106941;1275;22648;-85
2023/08/07 06:52:30;;;;;;;6.10;2.60;;;;;;;;;;107058;1275;22541;-88
2023/08/07 06:54:57;;;;;;;8.70;3.80;;;;;;;;;;106936;1275;22518;-82
2023/08/07 06:57:24;;;;;;;9.60;4.10;;;;;;;;;;107111;1259;22540;-83
2023/08/07 06:59:51;;;;;;;7.40;3.90;;;;;;;;;;107130;1274;22553;-83
2023/08/07 07:02:21;;;;;;;6.10;3.70;;;;;;;;;;106983;1274;25234;-84
2023/08/07 07:04:48;;;;;;;8.20;3.70;;;;;;;;;;107139;1274;24202;-84
2023/08/07 07:07:15;;;;;;;6.80;2.60;;;;;;;;;;107109;1266;25275;-85
2023/08/07 07:09:45;;;;;;;5.30;2.20;;;;;;;;;;107091;1275;22477;-88
2023/08/07 07:12:15;;;;;;;7.30;2.50;;;;;;;;;;106955;1275;24228;-86
2023/08/07 07:14:42;;;;;;;5.90;2.40;;;;;;;;;;107113;1275;25325;-81
2023/08/07 07:17:11;;;;;;;7.20;2.50;;;;;;;;;;107182;1274;24262;-88
2023/08/07 07:19:42;;;;;;;7.00;2.10;;;;;;;;;;107161;1251;24174;-83
2023/08/07 07:22:08;;;;;;;6.30;2.10;;;;;;;;;;107209;1270;24192;-88
2023/08/07 07:24:35;;;;;;;6.30;2.50;;;;;;;;;;107205;1274;22591;-83
2023/08/07 07:27:05;;;;;;;6.80;1.80;;;;;;;;;;107107;1267;22940;-84
2023/08/07 07:29:42;;;;;;;6.70;2.50;;;;;;;;;;106967;1275;24310;-82
2023/08/07 07:32:29;;;;;;;5.60;2.40;;;;;;;;;;106963;1275;22521;-86
2023/08/07 07:34:56;;;;;;;5.50;2.20;;;;;;;;;;107189;1275;25217;-82
2023/08/07 07:37:34;;;;;;;5.30;1.90;;;;;;;;;;107252;1258;25625;-84
2023/08/07 07:40:04;;;;;;;6.00;2.10;;;;;;;;;;107158;1274;24202;-84
2023/08/07 07:42:37;;;;;;;5.20;1.80;;;;;;;;;;107111;1275;22552;-81
2023/08/07 07:45:04;;;;;;;6.80;2.20;;;;;;;;;;106983;1274;24346;-84
2023/08/07 07:47:31;;;;;;;5.40;2.00;;;;;;;;;;107189;1266;24193;-85
2023/08/07 07:50:06;;;;;;;6.10;2.00;;;;;;;;;;106968;1274;22528;-88
2023/08/07 07:52:33;;;;;;;4.40;1.70;;;;;;;;;;107209;1275;25224;-81
2023/08/07 07:55:02;;;;;;;5.10;2.00;;;;;;;;;;106849;1275;24247;-81
2023/08/07 07:57:29;;;;;;;5.70;2.30;;;;;;;;;;107052;1257;24345;-86
2023/08/07 07:59:58;;;;;;;5.20;2.10;;;;;;;;;;107185;1274;24244;-86
2023/08/07 08:02:36;;;;;;;3.70;1.70;;;;;;;;;;107250;1274;25315;-88
2023/08/07 08:05:03;;;;;;;5.90;2.00;;;;;;;;;;107234;1274;22470;-83
2023/08/07 08:07:31;;;;;;;4.10;1.80;;;;;;;;;;107183;1275;23863;-86
2023/08/07 08:09:58;;;;;;;6.70;2.40;;;;;;;;;;107143;1275;24196;-87
2023/08/07 08:12:25;;;;;;;5.10;1.90;;;;;;;;;;107111;1275;24193;-80
2023/08/07 08:14:52;;;;;;;4.30;2.00;;;;;;;;;;106988;1275;24212;-82
2023/08/07 08:17:19;;;;;;;4.10;2.10;;;;;;;;;;107001;1257;25307;-85
2023/08/07 08:19:46;;;;;;;4.50;1.90;;;;;;;;;;107089;1270;22935;-88
2023/08/07 08:22:12;;;;;;;4.30;1.80;;;;;;;;;;107110;1275;23899;-83
2023/08/07 08:24:39;;;;;;;6.00;2.10;;;;;;;;;;107138;1275;25541;-88
2023/08/07 08:27:06;;;;;;;6.20;2.40;;;;;;;;;;107335;1251;25272;-84
2023/08/07 08:29:36;;;;;;;4.90;1.80;;;;;;;;;;107006;1274;22530;-87
2023/08/07 08:32:03;;;;;;;6.10;2.40;;;;;;;;;;107231;1274;22523;-80
2023/08/07 08:34:30;;;;;;;7.00;2.30;;;;;;;;;;107257;1274;26458;-84
2023/08/07 08:36:57;;;;;;;6.60;2.20;;;;;;;;;;107112;1274;22639;-78
2023/08/07 08:39:24;;;;;;;4.60;2.10;;;;;;;;;;106898;1261;22535;-79
2023/08/07 08:41:51;;;;;;;5.20;2.30;;;;;;;;;;107117;1275;22624;-83
2023/08/07 08:44:22;;;;;;;5.40;2.30;;;;;;;;;;110624;1270;22771;-77
2023/08/07 08:46:53;;;;;;;6.10;2.60;;;;;;;;;;110447;1276;22115;-79
2023/08/07 08:49:26;;;;;;;5.30;2.30;;;;;;;;;;110593;1257;23054;-80
2023/08/07 08:51:53;;;;;;;7.00;2.50;;;;;;;;;;110628;1274;22192;-81
2023/08/07 08:54:21;;;;;;;5.60;2.20;;;;;;;;;;110459;1275;22178;-77
2023/08/07 08:56:49;;;;;;;5.70;2.20;;;;;;;;;;110637;1276;22111;-80
2023/08/07 08:59:18;;;;;;;7.20;2.20;;;;;;;;;;110548;1259;22165;-79
2023/08/07 09:01:46;;;;;;;5.80;2.10;;;;;;;;;;110291;1276;22148;-78
2023/08/07 09:04:16;;;;;;;5.70;2.20;;;;;;;;;;110436;1276;22207;-80
2023/08/07 09:06:44;;;;;;;6.00;2.00;;;;;;;;;;110451;1276;22222;-80
2023/08/07 09:09:12;;;;;;;8.20;2.30;;;;;;;;;;110454;1257;22111;-79
2023/08/07 09:11:51;;;;;;;7.00;2.00;;;;;;;;;;110457;1275;22110;-80
2023/08/07 09:14:22;;;;;;;6.70;2.40;;;;;;;;;;110246;1276;22088;-80
2023/08/07 09:16:53;;;;;;;7.20;1.80;;;;;;;;;;110504;1275;22205;-81
2023/08/07 09:19:20;;;;;;;6.50;2.40;;;;;;;;;;110492;1260;22965;-82
2023/08/07 09:21:49;;;;;;;5.60;2.00;;;;;;;;;;110471;1276;22425;-80
2023/08/07 09:24:18;;;;;;;4.80;2.20;;;;;;;;;;110176;1276;22113;-80
2023/08/07 09:26:45;;;;;;;6.50;2.30;;;;;;;;;;110386;1276;22146;-80
2023/08/07 09:29:12;;;;;;;4.60;2.00;;;;;;;;;;110539;1257;22204;-80
2023/08/07 09:31:42;;;;;;;5.80;1.90;;;;;;;;;;110592;1275;22927;-80
2023/08/07 09:34:09;;;;;;;4.90;2.10;;;;;;;;;;110600;1260;22136;-80
2023/08/07 09:36:36;;;;;;;4.70;2.30;;;;;;;;;;110487;1275;22906;-80
2023/08/07 09:39:03;;;;;;;8.10;2.50;;;;;;;;;;110564;1257;22675;-81
2023/08/07 09:41:31;;;;;;;5.00;1.90;;;;;;;;;;110487;1276;23093;-81
2023/08/07 09:43:58;;;;;;;5.60;2.30;;;;;;;;;;110486;1276;22916;-80
2023/08/07 09:46:25;;;;;;;8.20;2.20;;;;;;;;;;110486;1273;22125;-80
2023/08/07 09:48:57;;;;;;;5.70;1.80;;;;;;;;;;110610;1256;22995;-80
2023/08/07 09:51:24;;;;;;;4.30;1.80;;;;;;;;;;110466;1275;22030;-80
2023/08/07 09:53:51;;;;;;;10.30;2.20;;;;;;;;;;110625;1275;22040;-78
2023/08/07 09:56:18;;;;;;;5.50;1.80;;;;;;;;;;110424;1275;22163;-80
2023/08/07 09:58:49;;;;;;;4.80;1.60;;;;;;;;;;110441;1254;22238;-80
2023/08/07 10:01:21;;;;;;;5.70;2.10;;;;;;;;;;110356;1276;22166;-79
2023/08/07 10:03:48;;;;;;;4.40;2.00;;;;;;;;;;110461;1273;22115;-79
2023/08/07 10:06:16;;;;;;;6.70;2.00;;;;;;;;;;110641;1276;22086;-79
2023/08/07 10:08:44;;;;;;;5.70;2.10;;;;;;;;;;110503;1263;23260;-82
2023/08/07 10:11:11;;;;;;;4.80;1.80;;;;;;;;;;110502;1257;22596;-79
2023/08/07 10:13:39;;;;;;;5.40;2.00;;;;;;;;;;110468;1275;22585;-79
2023/08/07 10:16:06;;;;;;;4.90;1.90;;;;;;;;;;110645;1275;22737;-80
2023/08/07 10:18:37;;;;;;;5.30;1.90;;;;;;;;;;110441;1275;22778;-79
2023/08/07 10:21:05;;;;;;;7.60;2.40;;;;;;;;;;110691;1258;22123;-80
2023/08/07 10:23:38;;;;;;;7.80;2.10;;;;;;;;;;110328;1276;22100;-78
2023/08/07 10:26:07;;;;;;;4.80;1.70;;;;;;;;;;110292;1276;22112;-82
2023/08/07 10:28:39;;;;;;;5.10;2.20;;;;;;;;;;110329;1276;21906;-79
2023/08/07 10:31:07;;;;;;;4.20;1.50;;;;;;;;;;110740;1256;22158;-83
2023/08/07 10:33:34;;;;;;;4.30;1.80;;;;;;;;;;110607;1275;22623;-78
2023/08/07 10:36:07;;;;;;;5.60;1.80;;;;;;;;;;110615;1275;22787;-78
2023/08/07 10:38:35;;;;;;;8.60;2.20;;;;;;;;;;110461;1275;22884;-79
2023/08/07 10:41:05;;;;;;;8.00;2.00;;;;;;;;;;110317;1256;22160;-78
2023/08/07 10:43:39;;;;;;;5.70;2.30;;;;;;;;;;110470;1276;22088;-78
2023/08/07 10:46:08;;;;;;;6.40;1.80;;;;;;;;;;110416;1276;22155;-79
2023/08/07 10:48:47;;;;;;;4.70;2.20;;;;;;;;;;110615;1276;22129;-78
2023/08/07 10:51:14;;;;;;;5.60;2.10;;;;;;;;;;110681;1259;22142;-80
2023/08/07 10:53:44;;;;;;;5.90;2.00;;;;;;;;;;110517;1275;22967;-79
2023/08/07 10:56:15;;;;;;;7.60;2.10;;;;;;;;;;110511;1275;22115;-78
2023/08/07 10:58:42;;;;;;;5.70;2.10;;;;;;;;;;110488;1275;22132;-78
2023/08/07 11:01:26;;;;;;;3.70;1.60;;;;;;;;;;110785;1254;22118;-78
2023/08/07 11:04:00;;;;;;;6.00;2.00;;;;;;;;;;110576;1276;22062;-78
2023/08/07 11:06:28;;;;;;;6.60;2.10;;;;;;;;;;110475;1276;22191;-79
2023/08/07 11:08:55;;;;;;;4.40;1.60;;;;;;;;;;110443;1276;22095;-79
2023/08/07 11:11:22;;;;;;;4.60;1.90;;;;;;;;;;110682;1257;22186;-79
2023/08/07 11:13:49;;;;;;;7.60;1.90;;;;;;;;;;110569;1275;21993;-79
2023/08/07 11:16:16;;;;;;;6.20;1.80;;;;;;;;;;110513;1275;22112;-80
2023/08/07 11:18:43;;;;;;;5.90;2.00;;;;;;;;;;110494;1275;22858;-80
2023/08/07 11:21:14;;;;;;;7.80;1.80;;;;;;;;;;110648;1259;22274;-78
2023/08/07 11:23:41;;;;;;;5.60;1.60;;;;;;;;;;110462;1276;22951;-79
2023/08/07 11:26:09;;;;;;;4.20;1.50;;;;;;;;;;110335;1276;22728;-78
2023/08/07 11:28:35;;;;;;;4.80;1.80;;;;;;;;;;110466;1276;22189;-77
2023/08/07 11:31:03;;;;;;;4.40;1.60;;;;;;;;;;110637;1256;22182;-76
2023/08/07 11:33:30;;;;;;;5.10;1.90;;;;;;;;;;110492;1275;22418;-77
2023/08/07 11:35:57;;;;;;;5.10;1.40;;;;;;;;;;110623;1275;21987;-77
2023/08/07 11:38:53;;;;;;;5.50;1.70;;;;;;;;;;110617;1275;22116;-78
2023/08/07 11:41:21;;;;;;;4.80;2.00;;;;;;;;;;110665;1267;22116;-77
2023/08/07 11:43:48;;;;;;;4.00;1.90;;;;;;;;;;110438;1276;22325;-77
2023/08/07 11:46:15;;;;;;;4.70;1.70;;;;;;;;;;110416;1276;22082;-78
2023/08/07 11:48:43;;;;;;;4.80;1.80;;;;;;;;;;110608;1276;22802;-78
2023/08/07 11:51:10;;;;;;;4.00;1.50;;;;;;;;;;110523;1252;22144;-78
2023/08/07 11:53:39;;;;;;;3.60;1.50;;;;;;;;;;110482;1275;22098;-78
2023/08/07 11:56:09;;;;;;;4.30;1.60;;;;;;;;;;110486;1275;22577;-77
2023/08/07 11:58:38;;;;;;;3.40;1.70;;;;;;;;;;110486;1275;22854;-77
2023/08/07 12:01:17;;;;;;;5.10;1.70;;;;;;;;;;106421;1253;5440951;-77
2023/08/07 12:03:56;;;;;;;4.60;1.90;;;;;;;;;;110482;1276;22126;-77
2023/08/07 12:06:24;;;;;;;4.20;1.70;;;;;;;;;;110573;1276;22762;-78
2023/08/07 12:08:56;;;;;;;4.80;1.70;;;;;;;;;;110626;1276;22941;-77
2023/08/07 12:11:26;;;;;;;5.30;1.30;;;;;;;;;;110484;1252;22164;-79
2023/08/07 12:13:53;;;;;;;3.10;1.30;;;;;;;;;;110486;1275;22017;-78
2023/08/07 12:16:20;;;;;;;4.40;1.50;;;;;;;;;;110519;1275;22104;-77
2023/08/07 12:18:48;;;;;;;3.00;1.50;;;;;;;;;;110614;1275;22129;-78
2023/08/07 12:21:16;;;;;;;3.70;1.70;;;;;;;;;;110497;1275;22138;-78
2023/08/07 12:23:51;;;;;;;4.00;1.60;;;;;;;;;;110781;1254;22140;-78
2023/08/07 12:26:17;;;;;;;4.60;1.60;;;;;;;;;;110498;1276;22885;-77
2023/08/07 12:28:54;;;;;;;6.60;1.90;;;;;;;;;;110467;1276;22896;-77
2023/08/07 12:31:21;;;;;;;4.80;2.00;;;;;;;;;;110596;1269;22271;-78
2023/08/07 12:33:50;;;;;;;5.00;1.60;;;;;;;;;;110930;1252;22128;-77
2023/08/07 12:36:25;;;;;;;5.80;1.50;;;;;;;;;;110503;1275;23021;-78
2023/08/07 12:38:52;;;;;;;6.40;1.80;;;;;;;;;;110649;1275;22212;-78
2023/08/07 12:41:19;;;;;;;3.70;1.30;;;;;;;;;;110433;1276;22329;-78
2023/08/07 12:43:46;;;;;;;3.90;1.70;;;;;;;;;;110771;1259;22090;-78
2023/08/07 12:46:15;;;;;;;4.60;1.60;;;;;;;;;;110521;1276;22106;-77
2023/08/07 12:48:45;;;;;;;3.20;1.50;;;;;;;;;;110604;1275;22287;-77
2023/08/07 12:51:12;;;;;;;3.70;1.40;;;;;;;;;;110451;1276;22391;-77
2023/08/07 12:53:38;;;;;;;2.70;1.50;;;;;;;;;;110765;1259;22148;-78
2023/08/07 12:56:05;;;;;;;3.30;1.30;;;;;;;;;;110557;1275;22090;-77
2023/08/07 12:58:34;;;;;;;3.60;1.50;;;;;;;;;;110498;1262;22274;-78
2023/08/07 13:01:01;;;;;;;4.10;1.20;;;;;;;;;;110337;1275;22165;-77
2023/08/07 13:03:28;;;;;;;4.20;1.30;;;;;;;;;;110608;1255;22474;-77
2023/08/07 13:05:55;;;;;;;3.80;1.10;;;;;;;;;;110624;1275;22911;-77
2023/08/07 13:08:22;;;;;;;5.90;1.40;;;;;;;;;;110604;1275;22573;-78
2023/08/07 13:10:51;;;;;;;4.10;1.20;;;;;;;;;;110490;1275;23101;-77
2023/08/07 13:13:18;;;;;;;3.20;1.20;;;;;;;;;;110578;1253;22112;-77
2023/08/07 13:15:45;;;;;;;4.50;1.20;;;;;;;;;;110513;1276;22148;-78
2023/08/07 13:18:14;;;;;;;3.70;1.60;;;;;;;;;;110576;1275;22115;-79
2023/08/07 13:20:40;;;;;;;2.50;1.20;;;;;;;;;;110619;1276;22326;-78
2023/08/07 13:23:08;;;;;;;2.40;1.20;;;;;;;;;;110639;1253;22896;-82
2023/08/07 13:25:38;;;;;;;2.40;1.00;;;;;;;;;;110457;1275;22736;-79
2023/08/07 13:28:10;;;;;;;3.30;1.30;;;;;;;;;;110514;1275;22092;-78
2023/08/07 13:30:41;;;;;;;3.00;1.10;;;;;;;;;;110616;1275;22179;-77
2023/08/07 13:33:08;;;;;;;3.10;1.00;;;;;;;;;;110505;1253;22135;-78
2023/08/07 13:35:34;;;;;;;3.00;1.00;;;;;;;;;;110475;1270;22107;-78
2023/08/07 13:38:04;;;;;;;4.10;1.30;;;;;;;;;;110563;1276;22126;-78
2023/08/07 13:40:42;;;;;;;1.40;0.90;;;;;;;;;;110477;1277;22371;-78
2023/08/07 13:43:20;;;;;;;3.10;1.20;;;;;;;;;;110254;1254;22148;-79
2023/08/07 13:46:14;;;;;;;2.30;1.10;;;;;;;;;;110295;1277;22145;-77
2023/08/07 13:49:43;;;;;;;3.70;1.10;;;;;;;;;;110395;1277;22149;-78
2023/08/07 13:52:39;;;;;;;4.00;1.00;;;;;;;;;;110470;1273;22134;-78
2023/08/07 13:55:54;;;;;;;2.40;0.90;;;;;;;;;;110644;1256;22133;-79
2023/08/07 13:58:09;;;;;;;2.90;0.70;;;;;;;;;;110532;1276;21985;-78
2023/08/07 14:00:48;;;;;;;1.90;0.90;;;;;;;;;;110446;1276;22892;-78
2023/08/07 14:03:19;;;;;;;3.70;1.20;;;;;;;;;;110425;1276;22921;-77
2023/08/07 14:05:51;;;;;;;2.10;1.00;;;;;;;;;;110560;1256;22725;-77
2023/08/07 14:08:22;;;;;;;2.80;1.10;;;;;;;;;;110295;1277;22118;-77
2023/08/07 14:11:13;;;;;;;4.00;1.20;;;;;;;;;;110485;1277;22747;-76
2023/08/07 14:13:54;;;;;;;2.60;0.70;;;;;;;;;;110203;1254;22145;-78
2023/08/07 14:16:42;;;;;;;3.70;1.10;;;;;;;;;;110390;1276;22968;-78
2023/08/07 14:19:36;;;;;;;1.90;1.00;;;;;;;;;;110573;1276;22106;-80
2023/08/07 14:22:07;;;;;;;3.80;1.00;;;;;;;;;;110360;1276;22200;-79
2023/08/07 14:24:38;;;;;;;2.30;0.80;;;;;;;;;;110467;1259;22155;-81
2023/08/07 14:27:14;;;;;;;2.30;0.80;;;;;;;;;;110246;1277;22361;-77
2023/08/07 14:29:57;;;;;;;3.30;1.20;;;;;;;;;;110449;1277;22142;-77
2023/08/07 14:32:24;;;;;;;3.20;1.10;;;;;;;;;;110308;1277;23043;-78
2023/08/07 14:34:54;;;;;;;3.40;1.00;;;;;;;;;;110248;1258;22147;-77
2023/08/07 14:37:27;;;;;;;3.60;1.10;;;;;;;;;;110508;1257;22124;-79
2023/08/07 14:39:56;;;;;;;2.70;1.20;;;;;;;;;;110168;1277;22127;-78
2023/08/07 14:42:29;;;;;;;3.70;1.10;;;;;;;;;;110228;1278;22228;-78
2023/08/07 14:45:00;;;;;;;2.70;1.00;;;;;;;;;;110158;1278;22161;-78